createdAt,value
2023-05-05T00:00:59.756Z,5.80
2023-05-05T00:03:27.676Z,5.63
2023-05-05T00:05:55.601Z,8.23
2023-05-05T00:08:23.151Z,6.23
2023-05-05T00:10:51.263Z,8.13
2023-05-05T00:13:19.672Z,5.37
2023-05-05T00:15:47.998Z,8.33
2023-05-05T00:18:16.105Z,5.50
2023-05-05T00:20:44.441Z,7.93
2023-05-05T00:23:12.025Z,6.47
2023-05-05T00:25:39.527Z,6.40
2023-05-05T00:28:10.261Z,6.53
2023-05-05T00:30:37.847Z,6.17
2023-05-05T00:33:05.348Z,6.97
2023-05-05T00:35:32.912Z,5.53
2023-05-05T00:38:00.403Z,5.10
2023-05-05T00:40:27.982Z,5.97
2023-05-05T00:42:55.521Z,6.23
2023-05-05T00:45:23.068Z,5.43
2023-05-05T00:47:52.971Z,9.80
2023-05-05T00:50:24.448Z,7.07
2023-05-05T00:52:53.573Z,6.13
2023-05-05T00:55:21.300Z,7.03
2023-05-05T00:57:49.250Z,8.20
2023-05-05T01:00:16.913Z,6.63
2023-05-05T01:02:45.028Z,10.93
2023-05-05T01:05:13.281Z,7.93
2023-05-05T01:07:40.868Z,6.63
2023-05-05T01:10:20.653Z,6.83
2023-05-05T01:13:02.458Z,7.37
2023-05-05T01:15:59.639Z,6.50
2023-05-05T01:18:32.103Z,7.53
2023-05-05T01:21:07.369Z,7.23
2023-05-05T01:23:46.847Z,6.90
2023-05-05T01:26:17.443Z,10.30
2023-05-05T01:29:14.171Z,7.77
2023-05-05T01:31:44.641Z,7.10
2023-05-05T01:34:14.128Z,6.33
2023-05-05T01:36:45.144Z,6.97
2023-05-05T01:39:15.379Z,6.80
2023-05-05T01:41:44.669Z,9.27
2023-05-05T01:44:14.180Z,9.10
2023-05-05T01:46:41.754Z,7.70
2023-05-05T01:49:10.224Z,7.50
2023-05-05T01:51:38.812Z,8.27
2023-05-05T01:54:07.246Z,7.10
2023-05-05T01:56:35.626Z,8.23
2023-05-05T01:59:03.969Z,8.33
2023-05-05T02:01:32.332Z,8.47
2023-05-05T02:03:59.992Z,8.87
2023-05-05T02:06:28.814Z,7.83
2023-05-05T02:08:57.556Z,8.60
2023-05-05T02:11:25.822Z,8.87
2023-05-05T02:13:54.592Z,8.20
2023-05-05T02:16:23.303Z,8.10
2023-05-05T02:18:51.451Z,8.03
2023-05-05T02:21:19.082Z,8.17
2023-05-05T02:23:47.114Z,12.10
2023-05-05T02:26:16.505Z,11.03
2023-05-05T02:28:54.402Z,8.07
2023-05-05T02:31:23.391Z,9.43
2023-05-05T02:33:51.687Z,9.77
2023-05-05T02:36:21.252Z,8.97
2023-05-05T02:38:50.352Z,10.80
2023-05-05T02:41:20.567Z,12.50
2023-05-05T02:43:49.653Z,13.87
2023-05-05T02:46:17.202Z,12.63
2023-05-05T02:48:45.393Z,10.17
2023-05-05T02:51:12.897Z,12.60
2023-05-05T02:53:40.506Z,11.73
2023-05-05T02:56:22.758Z,14.13
2023-05-05T02:59:09.081Z,12.93
2023-05-05T03:02:15.228Z,11.80
2023-05-05T03:04:45.808Z,11.70
2023-05-05T03:07:15.487Z,11.93
2023-05-05T03:09:56.492Z,13.13
2023-05-05T03:12:27.893Z,10.90
2023-05-05T03:14:56.502Z,11.27
2023-05-05T03:17:24.998Z,11.50
2023-05-05T03:19:52.637Z,12.73
2023-05-05T03:22:20.379Z,15.30
2023-05-05T03:24:51.386Z,13.23
2023-05-05T03:27:18.938Z,14.93
2023-05-05T03:29:46.484Z,15.10
2023-05-05T03:32:14.170Z,14.37
2023-05-05T03:34:41.673Z,15.20
2023-05-05T03:37:09.224Z,14.53
2023-05-05T03:39:36.723Z,14.87
2023-05-05T03:42:04.364Z,14.90
2023-05-05T03:44:31.875Z,14.70
2023-05-05T03:46:59.456Z,17.07
2023-05-05T03:49:27.044Z,19.50
2023-05-05T03:51:54.631Z,15.77
2023-05-05T03:54:22.134Z,16.87
2023-05-05T03:56:49.778Z,15.10
2023-05-05T03:59:17.340Z,18.07
2023-05-05T04:01:45.034Z,16.00
2023-05-05T04:04:12.740Z,16.50
2023-05-05T04:06:40.300Z,16.60
2023-05-05T04:09:07.906Z,18.23
2023-05-05T04:11:35.514Z,16.70
2023-05-05T04:14:03.194Z,17.93
2023-05-05T04:16:30.864Z,16.33
2023-05-05T04:18:58.538Z,18.33
2023-05-05T04:21:26.036Z,18.00
2023-05-05T04:23:53.606Z,16.27
2023-05-05T04:26:21.170Z,18.37
2023-05-05T04:28:48.766Z,17.27
2023-05-05T04:31:16.376Z,17.27
2023-05-05T04:33:43.984Z,16.47
2023-05-05T04:36:11.635Z,15.93
2023-05-05T04:38:39.288Z,19.97
2023-05-05T04:41:07.056Z,18.07
2023-05-05T04:43:34.682Z,19.60
2023-05-05T04:46:02.225Z,19.17
2023-05-05T04:48:29.823Z,21.77
2023-05-05T04:50:57.355Z,19.97
2023-05-05T04:53:24.932Z,23.33
2023-05-05T04:55:52.672Z,20.87
2023-05-05T04:58:20.304Z,23.30
2023-05-05T05:00:47.842Z,23.93
2023-05-05T05:03:15.469Z,21.37
2023-05-05T05:05:43.188Z,25.30
2023-05-05T05:08:10.766Z,26.33
2023-05-05T05:10:38.286Z,20.33
2023-05-05T05:13:05.935Z,22.30
2023-05-05T05:15:33.455Z,21.67
2023-05-05T05:18:01.062Z,17.00
2023-05-05T05:20:30.290Z,16.03
2023-05-05T05:22:58.003Z,18.27
2023-05-05T05:25:26.058Z,16.07
2023-05-05T05:28:06.062Z,14.87
2023-05-05T05:30:37.795Z,14.70
2023-05-05T05:33:05.382Z,21.10
2023-05-05T05:35:33.105Z,18.30
2023-05-05T05:38:00.646Z,14.93
2023-05-05T05:40:28.312Z,19.00
2023-05-05T05:42:55.891Z,16.70
2023-05-05T05:45:23.540Z,17.47
2023-05-05T05:47:51.121Z,18.20
2023-05-05T05:50:18.780Z,19.13
2023-05-05T05:52:46.299Z,17.37
2023-05-05T05:55:13.859Z,16.73
2023-05-05T05:57:41.414Z,16.03
2023-05-05T06:00:09.650Z,17.87
2023-05-05T06:02:37.518Z,16.77
2023-05-05T06:05:05.328Z,16.17
2023-05-05T06:07:32.901Z,19.63
2023-05-05T06:10:07.912Z,16.60
2023-05-05T06:12:46.561Z,19.27
2023-05-05T06:15:14.100Z,17.03
2023-05-05T06:17:41.697Z,17.23
2023-05-05T06:20:09.673Z,16.73
2023-05-05T06:22:37.405Z,15.57
2023-05-05T06:25:05.319Z,16.57
2023-05-05T06:27:32.920Z,16.50
2023-05-05T06:30:00.510Z,15.87
2023-05-05T06:32:28.267Z,16.00
2023-05-05T06:34:55.857Z,16.63
2023-05-05T06:37:23.510Z,15.13
2023-05-05T06:39:51.078Z,14.10
2023-05-05T06:42:18.641Z,17.17
2023-05-05T06:44:46.166Z,15.07
2023-05-05T06:47:13.733Z,14.23
2023-05-05T06:49:41.506Z,15.00
2023-05-05T06:52:09.103Z,14.60
2023-05-05T06:54:36.598Z,14.13
2023-05-05T06:57:04.226Z,12.73
2023-05-05T06:59:31.740Z,12.47
2023-05-05T07:01:59.373Z,13.00
2023-05-05T07:04:26.950Z,13.77
2023-05-05T07:06:54.548Z,15.73
2023-05-05T07:09:22.073Z,15.90
2023-05-05T07:11:49.757Z,13.87
2023-05-05T07:14:17.343Z,16.30
2023-05-05T07:16:45.014Z,17.30
2023-05-05T07:19:12.582Z,14.90
2023-05-05T07:21:40.347Z,16.10
2023-05-05T07:24:07.969Z,16.27
2023-05-05T07:26:35.682Z,12.00
2023-05-05T07:29:03.366Z,12.20
2023-05-05T07:31:30.972Z,11.37
2023-05-05T07:33:58.643Z,12.60
2023-05-05T07:36:27.403Z,13.97
2023-05-05T07:38:55.018Z,12.10
2023-05-05T07:41:22.638Z,13.70
2023-05-05T07:43:50.163Z,9.23
2023-05-05T07:46:18.411Z,10.43
2023-05-05T07:48:46.144Z,9.10
2023-05-05T07:51:13.774Z,10.80
2023-05-05T07:53:41.733Z,10.60
2023-05-05T07:56:09.376Z,10.57
2023-05-05T07:58:36.947Z,10.53
2023-05-05T08:01:04.639Z,13.10
2023-05-05T08:03:32.266Z,11.17
2023-05-05T08:06:06.333Z,12.13
2023-05-05T08:08:38.135Z,13.60
2023-05-05T08:11:05.829Z,10.77
2023-05-05T08:13:34.808Z,10.10
2023-05-05T08:16:02.529Z,9.27
2023-05-05T08:18:30.115Z,12.43
2023-05-05T08:20:57.725Z,9.67
2023-05-05T08:23:25.279Z,11.13
2023-05-05T08:25:52.992Z,8.63
2023-05-05T08:28:20.557Z,9.30
2023-05-05T08:30:48.183Z,9.37
2023-05-05T08:33:16.132Z,9.37
2023-05-05T08:35:44.019Z,9.87
2023-05-05T08:38:12.147Z,11.17
2023-05-05T08:40:39.847Z,8.87
2023-05-05T08:43:07.697Z,9.50
2023-05-05T08:45:35.301Z,7.70
2023-05-05T08:48:04.287Z,9.90
2023-05-05T08:50:32.679Z,8.17
2023-05-05T08:53:00.313Z,9.90
2023-05-05T08:55:32.433Z,9.10
2023-05-05T08:58:00.267Z,8.93
2023-05-05T09:00:28.404Z,8.83
2023-05-05T09:02:59.831Z,7.17
2023-05-05T09:05:27.682Z,11.37
2023-05-05T09:07:55.229Z,7.73
2023-05-05T09:10:23.048Z,6.77
2023-05-05T09:12:50.720Z,5.03
2023-05-05T09:15:18.286Z,5.73
2023-05-05T09:17:45.890Z,5.03
2023-05-05T09:20:14.532Z,6.40
2023-05-05T09:22:46.198Z,6.20
2023-05-05T09:25:17.402Z,8.07
2023-05-05T09:27:46.149Z,8.60
2023-05-05T09:30:18.047Z,9.13
2023-05-05T09:32:49.633Z,7.70
2023-05-05T09:35:17.896Z,7.73
2023-05-05T09:37:45.604Z,6.50
2023-05-05T09:40:17.910Z,6.53
2023-05-05T09:42:45.679Z,6.10
2023-05-05T09:45:18.942Z,5.27
2023-05-05T09:47:47.133Z,11.43
2023-05-05T09:50:15.416Z,7.50
2023-05-05T09:52:43.218Z,8.57
2023-05-05T09:55:20.247Z,5.90
2023-05-05T09:57:47.869Z,5.97
2023-05-05T10:00:15.671Z,5.97
2023-05-05T10:02:43.296Z,6.20
2023-05-05T10:05:12.080Z,8.87
2023-05-05T10:07:40.731Z,6.40
2023-05-05T10:10:09.991Z,8.07
2023-05-05T10:12:37.967Z,5.57
2023-05-05T10:15:06.225Z,5.33
2023-05-05T10:17:37.514Z,5.50
2023-05-05T10:20:05.480Z,6.73
2023-05-05T10:22:36.265Z,9.37
2023-05-05T10:25:07.462Z,9.27
2023-05-05T10:27:38.410Z,13.17
2023-05-05T10:30:08.153Z,10.20
2023-05-05T10:35:16.839Z,8.63
2023-05-05T10:37:45.282Z,7.43
2023-05-05T10:40:13.502Z,8.67
2023-05-05T10:42:41.455Z,7.17
2023-05-05T10:45:09.141Z,11.33
2023-05-05T10:47:37.989Z,6.60
2023-05-05T10:50:34.806Z,4.93
2023-05-05T10:53:15.459Z,5.33
2023-05-05T10:56:21.705Z,6.13
2023-05-05T10:58:59.233Z,7.73
2023-05-05T11:01:30.624Z,7.07
2023-05-05T11:04:17.041Z,4.80
2023-05-05T11:07:03.436Z,7.30
2023-05-05T11:09:31.059Z,5.73
2023-05-05T11:12:02.358Z,6.23
2023-05-05T11:14:30.127Z,6.43
2023-05-05T11:16:57.764Z,5.33
2023-05-05T11:19:48.584Z,5.33
2023-05-05T11:22:16.421Z,7.77
2023-05-05T11:24:44.014Z,7.13
2023-05-05T11:27:11.617Z,7.00
2023-05-05T11:29:57.833Z,9.03
2023-05-05T11:32:25.433Z,5.63
2023-05-05T11:34:52.998Z,5.77
2023-05-05T11:37:23.840Z,8.03
2023-05-05T11:40:10.585Z,6.00
2023-05-05T11:42:38.536Z,5.57
2023-05-05T11:45:20.418Z,6.87
2023-05-05T11:47:48.044Z,6.47
2023-05-05T11:50:16.092Z,7.47
2023-05-05T11:52:43.832Z,10.17
2023-05-05T11:55:11.481Z,5.57
2023-05-05T11:57:39.166Z,6.33
2023-05-05T12:00:08.125Z,5.07
2023-05-05T12:02:36.306Z,7.37
2023-05-05T12:05:04.713Z,4.23
2023-05-05T12:07:33.203Z,4.87
2023-05-05T12:10:00.849Z,3.77
2023-05-05T12:12:35.572Z,8.30
2023-05-05T12:15:03.234Z,3.00
2023-05-05T12:17:37.122Z,2.97
2023-05-05T12:20:04.876Z,4.10
2023-05-05T12:22:32.477Z,2.60
2023-05-05T12:25:03.135Z,3.10
2023-05-05T12:27:30.834Z,5.30
2023-05-05T12:30:10.837Z,3.37
2023-05-05T12:32:38.491Z,4.23
2023-05-05T12:35:07.105Z,3.47
2023-05-05T12:37:37.690Z,3.20
2023-05-05T12:40:05.710Z,4.93
2023-05-05T12:42:38.723Z,5.50
2023-05-05T12:45:07.623Z,15.67
2023-05-05T12:47:35.178Z,4.47
2023-05-05T12:50:02.925Z,3.53
2023-05-05T12:52:44.002Z,4.73
2023-05-05T12:55:11.901Z,3.43
2023-05-05T12:57:39.711Z,4.07
2023-05-05T13:00:19.786Z,2.93
2023-05-05T13:02:47.488Z,3.97
2023-05-05T13:05:15.146Z,5.73
2023-05-05T13:07:52.397Z,6.50
2023-05-05T13:10:19.995Z,3.87
2023-05-05T13:12:47.539Z,3.00
2023-05-05T13:15:15.332Z,4.57
2023-05-05T13:17:43.078Z,2.80
2023-05-05T13:20:10.915Z,3.70
2023-05-05T13:22:38.591Z,3.20
2023-05-05T13:25:06.388Z,5.20
2023-05-05T13:27:34.397Z,3.27
2023-05-05T13:30:02.007Z,3.80
2023-05-05T13:32:29.614Z,4.20
2023-05-05T13:34:57.224Z,4.90
2023-05-05T13:37:24.810Z,3.97
2023-05-05T13:39:55.355Z,3.37
2023-05-05T13:42:22.924Z,2.60
2023-05-05T13:44:50.454Z,3.03
2023-05-05T13:47:18.095Z,5.00
2023-05-05T13:49:45.762Z,2.97
2023-05-05T13:52:13.324Z,3.63
2023-05-05T13:54:41.115Z,3.73
2023-05-05T13:57:08.750Z,4.10
2023-05-05T13:59:36.299Z,4.57
2023-05-05T14:02:03.900Z,4.17
2023-05-05T14:04:31.503Z,2.67
2023-05-05T14:06:59.115Z,3.90
2023-05-05T14:09:26.632Z,5.17
2023-05-05T14:11:54.272Z,4.60
2023-05-05T14:14:21.780Z,3.53
2023-05-05T14:16:50.396Z,5.00
2023-05-05T14:19:18.064Z,3.10
2023-05-05T14:21:45.657Z,3.47
2023-05-05T14:24:13.218Z,4.10
2023-05-05T14:26:40.958Z,3.90
2023-05-05T14:29:08.564Z,1.93
2023-05-05T14:31:36.291Z,1.23
2023-05-05T14:34:03.941Z,1.47
2023-05-05T14:36:31.504Z,4.07
2023-05-05T14:38:59.229Z,4.23
2023-05-05T14:41:26.905Z,3.50
2023-05-05T14:43:54.480Z,2.33
2023-05-05T14:46:22.208Z,3.33
2023-05-05T14:48:49.813Z,1.67
2023-05-05T14:51:17.407Z,1.80
2023-05-05T14:53:44.931Z,2.67
2023-05-05T14:56:12.638Z,2.80
2023-05-05T14:58:40.226Z,2.53
2023-05-05T15:01:07.855Z,2.30
2023-05-05T15:03:35.737Z,3.70
2023-05-05T15:06:03.402Z,3.13
2023-05-05T15:08:30.964Z,4.07
2023-05-05T15:10:58.586Z,4.20
2023-05-05T15:13:26.225Z,6.13
2023-05-05T15:15:53.840Z,3.83
2023-05-05T15:18:21.423Z,5.07
2023-05-05T15:20:49.069Z,3.40
2023-05-05T15:23:16.559Z,4.33
2023-05-05T15:25:44.180Z,2.60
2023-05-05T15:28:11.688Z,4.97
2023-05-05T15:30:39.246Z,4.17
2023-05-05T15:33:06.876Z,3.90
2023-05-05T15:35:34.491Z,3.50
2023-05-05T15:38:01.991Z,4.53
2023-05-05T15:40:29.554Z,4.67
2023-05-05T15:42:57.681Z,5.33
2023-05-05T15:45:25.345Z,4.37
2023-05-05T15:47:52.943Z,5.23
2023-05-05T15:50:20.636Z,3.40
2023-05-05T15:52:49.947Z,5.93
2023-05-05T15:55:17.727Z,3.43
2023-05-05T15:57:48.426Z,5.13
2023-05-05T16:00:16.099Z,3.53
2023-05-05T16:02:43.682Z,3.30
2023-05-05T16:05:11.473Z,4.70
2023-05-05T16:07:39.208Z,3.80
2023-05-05T16:10:07.113Z,4.23
2023-05-05T16:12:34.646Z,3.27
2023-05-05T16:15:02.225Z,3.80
2023-05-05T16:17:29.852Z,3.10
2023-05-05T16:19:57.474Z,3.40
2023-05-05T16:22:25.050Z,3.83
2023-05-05T16:24:52.604Z,5.17
2023-05-05T16:27:20.233Z,3.63
2023-05-05T16:29:47.828Z,4.37
2023-05-05T16:32:15.331Z,4.73
2023-05-05T16:34:42.890Z,3.13
2023-05-05T16:37:10.492Z,3.80
2023-05-05T16:39:38.487Z,4.03
2023-05-05T16:42:06.244Z,5.70
2023-05-05T16:44:33.840Z,3.77
2023-05-05T16:47:01.611Z,4.30
2023-05-05T16:49:29.371Z,3.10
2023-05-05T16:51:56.967Z,4.40
2023-05-05T16:54:24.548Z,3.90
2023-05-05T16:56:52.097Z,3.40
2023-05-05T16:59:19.645Z,3.73
2023-05-05T17:01:47.287Z,4.20
2023-05-05T17:04:15.006Z,3.73
2023-05-05T17:06:42.572Z,4.53
2023-05-05T17:09:10.208Z,3.83
2023-05-05T17:11:37.793Z,5.57
2023-05-05T17:14:05.386Z,3.20
2023-05-05T17:16:33.079Z,5.17
2023-05-05T17:19:00.802Z,3.17
2023-05-05T17:21:28.322Z,3.90
2023-05-05T17:23:55.958Z,4.50
2023-05-05T17:26:23.502Z,3.80
2023-05-05T17:28:51.098Z,3.90
2023-05-05T17:31:18.639Z,4.87
2023-05-05T17:33:46.237Z,5.47
2023-05-05T17:36:13.763Z,4.60
2023-05-05T17:38:41.261Z,4.93
2023-05-05T17:41:08.859Z,5.43
2023-05-05T17:43:36.409Z,3.83
2023-05-05T17:46:03.973Z,5.10
2023-05-05T17:48:31.619Z,4.67
2023-05-05T17:50:59.220Z,6.57
2023-05-05T17:53:26.760Z,7.80
2023-05-05T17:55:54.328Z,9.20
2023-05-05T17:58:21.836Z,9.97
2023-05-05T18:00:49.536Z,10.53
2023-05-05T18:03:17.233Z,11.27
2023-05-05T18:05:44.981Z,10.33
2023-05-05T18:08:12.530Z,11.17
2023-05-05T18:10:40.106Z,9.87
2023-05-05T18:13:07.954Z,9.67
2023-05-05T18:15:35.603Z,8.33
2023-05-05T18:18:03.201Z,10.53
2023-05-05T18:20:30.760Z,10.53
2023-05-05T18:22:58.329Z,11.10
2023-05-05T18:25:26.026Z,10.70
2023-05-05T18:27:53.615Z,9.83
2023-05-05T18:30:21.239Z,12.20
2023-05-05T18:32:48.878Z,9.97
2023-05-05T18:35:18.193Z,13.73
2023-05-05T18:37:45.801Z,10.50
2023-05-05T18:40:13.530Z,13.37
2023-05-05T18:42:41.056Z,15.17
2023-05-05T18:45:09.472Z,10.67
2023-05-05T18:47:38.313Z,11.23
2023-05-05T18:50:06.549Z,10.93
2023-05-05T18:52:34.198Z,12.37
2023-05-05T18:55:01.761Z,12.50
2023-05-05T18:57:29.321Z,13.80
2023-05-05T18:59:56.894Z,12.37
2023-05-05T19:02:24.523Z,14.50
2023-05-05T19:04:52.208Z,14.40
2023-05-05T19:07:31.660Z,14.97
2023-05-05T19:10:04.090Z,14.80
2023-05-05T19:12:31.734Z,16.50
2023-05-05T19:14:59.322Z,14.90
2023-05-05T19:17:26.899Z,16.23
2023-05-05T19:19:54.506Z,15.43
2023-05-05T19:22:22.032Z,13.93
2023-05-05T19:24:49.726Z,16.97
2023-05-05T19:27:17.368Z,16.37
2023-05-05T19:29:45.238Z,13.73
2023-05-05T19:32:12.986Z,18.87
2023-05-05T19:34:40.988Z,17.57
2023-05-05T19:37:09.224Z,18.23
2023-05-05T19:39:36.831Z,18.97
2023-05-05T19:42:04.416Z,15.17
2023-05-05T19:44:32.056Z,19.07
2023-05-05T19:46:59.613Z,14.87
2023-05-05T19:49:27.138Z,16.50
2023-05-05T19:51:54.679Z,14.60
2023-05-05T19:54:22.229Z,14.57
2023-05-05T19:56:49.727Z,17.43
2023-05-05T19:59:17.439Z,15.87
2023-05-05T20:01:45.042Z,14.53
2023-05-05T20:04:12.704Z,15.13
2023-05-05T20:06:40.238Z,14.47
2023-05-05T20:09:07.794Z,17.20
2023-05-05T20:11:35.345Z,18.30
2023-05-05T20:14:03.017Z,18.03
2023-05-05T20:16:30.526Z,20.77
2023-05-05T20:18:58.118Z,17.10
2023-05-05T20:21:25.625Z,15.43
2023-05-05T20:23:53.308Z,19.93
2023-05-05T20:26:20.905Z,15.40
2023-05-05T20:28:48.449Z,16.90
2023-05-05T20:31:16.074Z,16.77
2023-05-05T20:33:43.744Z,18.63
2023-05-05T20:36:11.576Z,20.23
2023-05-05T20:38:39.132Z,19.50
2023-05-05T20:41:06.727Z,18.47
2023-05-05T20:43:34.302Z,19.80
2023-05-05T20:46:01.824Z,22.17
2023-05-05T20:48:31.814Z,24.53
2023-05-05T20:50:59.395Z,24.97
2023-05-05T20:53:26.895Z,26.83
2023-05-05T20:55:54.426Z,21.67
2023-05-05T20:58:21.942Z,22.40
2023-05-05T21:00:49.559Z,24.53
2023-05-05T21:03:17.187Z,26.27
2023-05-05T21:05:44.764Z,24.43
2023-05-05T21:08:12.305Z,26.70
2023-05-05T21:10:40.152Z,23.47
2023-05-05T21:13:07.757Z,24.70
2023-05-05T21:15:38.300Z,23.93
2023-05-05T21:18:06.010Z,22.10
2023-05-05T21:20:33.556Z,26.13
2023-05-05T21:23:01.139Z,26.30
2023-05-05T21:25:28.713Z,34.87
2023-05-05T21:27:56.279Z,32.63
2023-05-05T21:30:24.363Z,34.03
2023-05-05T21:32:52.676Z,36.30
2023-05-05T21:35:20.231Z,37.67
2023-05-05T21:37:47.812Z,35.57
2023-05-05T21:40:15.433Z,33.80
2023-05-05T21:42:43.155Z,29.83
2023-05-05T21:45:11.390Z,29.20
2023-05-05T21:47:39.217Z,29.73
2023-05-05T21:50:07.338Z,31.27
2023-05-05T21:52:35.155Z,29.83
2023-05-05T21:55:02.715Z,29.00
2023-05-05T21:57:30.510Z,26.97
2023-05-05T21:59:58.103Z,29.20
2023-05-05T22:02:25.773Z,25.07
2023-05-05T22:04:53.372Z,24.00
2023-05-05T22:07:20.958Z,27.30
2023-05-05T22:09:48.496Z,27.17
2023-05-05T22:12:16.042Z,27.63
2023-05-05T22:14:43.537Z,24.10
2023-05-05T22:17:11.428Z,26.33
2023-05-05T22:19:38.975Z,25.70
2023-05-05T22:22:06.504Z,26.93
2023-05-05T22:24:34.036Z,27.07
2023-05-05T22:27:01.912Z,25.03
2023-05-05T22:29:29.434Z,26.40
2023-05-05T22:31:57.224Z,31.13
2023-05-05T22:34:24.788Z,29.20
2023-05-05T22:36:52.323Z,28.70
2023-05-05T22:39:19.888Z,31.33
2023-05-05T22:41:47.645Z,33.17
2023-05-05T22:44:15.255Z,32.43
2023-05-05T22:46:42.869Z,33.87
2023-05-05T22:49:10.459Z,27.50
2023-05-05T22:51:38.029Z,28.17
2023-05-05T22:54:05.601Z,31.53
2023-05-05T22:56:33.347Z,26.33
2023-05-05T22:59:00.883Z,29.17
2023-05-05T23:01:28.523Z,29.70
2023-05-05T23:03:56.083Z,36.83
2023-05-05T23:06:23.726Z,33.37
2023-05-05T23:08:51.237Z,31.00
2023-05-05T23:11:18.794Z,31.67
2023-05-05T23:13:46.330Z,30.73
2023-05-05T23:16:13.915Z,37.70
2023-05-05T23:18:41.462Z,39.63
2023-05-05T23:21:10.653Z,35.73
2023-05-05T23:23:38.188Z,41.97
2023-05-05T23:26:05.711Z,39.13
2023-05-05T23:28:33.196Z,39.67
2023-05-05T23:31:00.792Z,36.17
2023-05-05T23:33:28.368Z,46.80
2023-05-05T23:35:55.917Z,42.80
2023-05-05T23:38:23.505Z,40.03
2023-05-05T23:40:51.177Z,42.43
2023-05-05T23:43:18.740Z,47.90
2023-05-05T23:45:46.345Z,47.60
2023-05-05T23:48:13.881Z,48.47
2023-05-05T23:50:41.446Z,53.87
2023-05-05T23:53:09.171Z,45.70
2023-05-05T23:55:36.784Z,45.17
2023-05-05T23:58:04.290Z,48.07
